createdAt,value
2024-05-09T00:00:46.931Z,12.90
2024-05-09T00:03:15.413Z,13.00
2024-05-09T00:05:44.758Z,13.10
2024-05-09T00:08:13.496Z,13.10
2024-05-09T00:10:41.960Z,13.10
2024-05-09T00:13:11.373Z,13.10
2024-05-09T00:15:40.082Z,13.00
2024-05-09T00:18:08.998Z,13.00
2024-05-09T00:20:40.482Z,12.90
2024-05-09T00:23:14.057Z,12.90
2024-05-09T00:25:46.152Z,12.90
2024-05-09T00:28:14.800Z,12.80
2024-05-09T00:30:43.623Z,12.70
2024-05-09T00:33:12.171Z,12.70
2024-05-09T00:35:41.797Z,12.80
2024-05-09T00:38:11.538Z,12.70
2024-05-09T00:40:42.511Z,12.70
2024-05-09T00:43:14.472Z,12.70
2024-05-09T00:45:44.473Z,12.70
2024-05-09T00:48:17.554Z,12.70
2024-05-09T00:50:48.735Z,12.70
2024-05-09T00:53:18.799Z,12.70
2024-05-09T00:55:47.956Z,12.70
2024-05-09T00:58:18.587Z,12.80
2024-05-09T01:00:47.415Z,12.90
2024-05-09T01:03:16.160Z,12.90
2024-05-09T01:05:45.213Z,12.90
2024-05-09T01:08:14.030Z,12.90
2024-05-09T01:10:45.026Z,12.90
2024-05-09T01:13:14.677Z,12.90
2024-05-09T01:15:43.812Z,12.80
2024-05-09T01:18:13.564Z,12.80
2024-05-09T01:20:44.765Z,12.80
2024-05-09T01:23:16.183Z,12.80
2024-05-09T01:25:47.024Z,12.80
2024-05-09T01:28:16.619Z,12.80
2024-05-09T01:30:45.528Z,12.80
2024-05-09T01:33:14.362Z,12.70
2024-05-09T01:35:43.479Z,12.70
2024-05-09T01:38:17.585Z,12.80
2024-05-09T01:40:47.456Z,12.80
2024-05-09T01:43:17.335Z,12.80
2024-05-09T01:45:46.383Z,12.90
2024-05-09T01:48:14.900Z,12.90
2024-05-09T01:50:43.793Z,12.90
2024-05-09T01:53:14.778Z,13.00
2024-05-09T01:55:44.561Z,13.00
2024-05-09T01:58:13.857Z,13.00
2024-05-09T02:00:43.393Z,13.00
2024-05-09T02:03:16.120Z,12.90
2024-05-09T02:05:48.312Z,12.90
2024-05-09T02:08:19.343Z,12.90
2024-05-09T02:10:50.212Z,12.90
2024-05-09T02:13:20.175Z,12.90
2024-05-09T02:15:52.658Z,13.00
2024-05-09T02:18:24.322Z,13.00
2024-05-09T02:20:52.738Z,13.00
2024-05-09T02:23:21.253Z,13.00
2024-05-09T02:25:50.469Z,12.90
2024-05-09T02:28:21.306Z,12.80
2024-05-09T02:30:49.842Z,12.90
2024-05-09T02:33:18.825Z,12.90
2024-05-09T02:35:47.240Z,12.90
2024-05-09T02:38:15.740Z,13.00
2024-05-09T02:40:44.243Z,12.90
2024-05-09T02:43:13.303Z,12.80
2024-05-09T02:45:42.419Z,12.80
2024-05-09T02:48:13.212Z,12.80
2024-05-09T02:50:44.364Z,12.80
2024-05-09T02:53:14.477Z,12.80
2024-05-09T02:55:43.489Z,12.80
2024-05-09T02:58:12.430Z,12.80
2024-05-09T03:00:42.586Z,12.80
2024-05-09T03:03:14.281Z,12.80
2024-05-09T03:05:45.120Z,12.80
2024-05-09T03:08:14.004Z,12.70
2024-05-09T03:10:42.981Z,12.70
2024-05-09T03:13:15.199Z,12.70
2024-05-09T03:15:45.952Z,12.70
2024-05-09T03:18:15.373Z,12.70
2024-05-09T03:20:44.693Z,12.70
2024-05-09T03:23:13.609Z,12.70
2024-05-09T03:25:42.098Z,12.60
2024-05-09T03:28:11.571Z,12.60
2024-05-09T03:31:05.166Z,12.60
2024-05-09T03:33:33.757Z,12.60
2024-05-09T03:36:05.598Z,12.60
2024-05-09T03:38:40.013Z,12.60
2024-05-09T03:41:09.419Z,12.50
2024-05-09T03:43:37.754Z,12.50
2024-05-09T03:46:05.961Z,12.40
2024-05-09T03:48:37.302Z,12.50
2024-05-09T03:51:06.045Z,12.40
2024-05-09T03:53:34.733Z,12.40
2024-05-09T03:56:03.994Z,12.40
2024-05-09T03:58:33.310Z,12.30
2024-05-09T04:01:01.877Z,12.30
2024-05-09T04:03:30.705Z,12.30
2024-05-09T04:05:59.146Z,12.20
2024-05-09T04:08:27.666Z,12.20
2024-05-09T04:10:56.603Z,12.30
2024-05-09T04:13:25.158Z,12.20
2024-05-09T04:15:53.383Z,12.20
2024-05-09T04:18:21.912Z,12.20
2024-05-09T04:20:50.462Z,12.30
2024-05-09T04:23:19.112Z,12.50
2024-05-09T04:25:47.709Z,12.40
2024-05-09T04:28:16.713Z,12.40
2024-05-09T04:30:45.140Z,12.30
2024-05-09T04:33:15.485Z,12.30
2024-05-09T04:35:44.712Z,12.40
2024-05-09T04:38:14.931Z,12.50
2024-05-09T04:40:44.165Z,12.60
2024-05-09T04:43:19.117Z,12.40
2024-05-09T04:45:48.009Z,12.40
2024-05-09T04:48:17.104Z,12.60
2024-05-09T04:50:45.974Z,12.60
2024-05-09T04:53:17.935Z,12.60
2024-05-09T04:55:46.707Z,12.70
2024-05-09T04:58:15.190Z,12.50
2024-05-09T05:00:44.605Z,12.50
2024-05-09T05:03:15.471Z,12.60
2024-05-09T05:05:45.909Z,12.60
2024-05-09T05:08:16.866Z,12.60
2024-05-09T05:10:48.255Z,12.60
2024-05-09T05:13:23.863Z,12.60
2024-05-09T05:15:56.841Z,12.60
2024-05-09T05:18:28.309Z,12.60
2024-05-09T05:20:57.627Z,12.70
2024-05-09T05:23:26.193Z,12.70
2024-05-09T05:25:56.112Z,12.60
2024-05-09T05:28:24.635Z,12.70
2024-05-09T05:30:53.174Z,12.80
2024-05-09T05:33:23.243Z,12.80
2024-05-09T05:35:52.356Z,12.70
2024-05-09T05:38:24.837Z,12.70
2024-05-09T05:40:56.078Z,12.90
2024-05-09T05:43:24.684Z,12.80
2024-05-09T05:45:54.919Z,12.80
2024-05-09T05:48:23.676Z,12.90
2024-05-09T05:50:52.335Z,12.90
2024-05-09T05:53:20.829Z,13.00
2024-05-09T05:55:49.853Z,13.10
2024-05-09T05:58:20.420Z,13.10
2024-05-09T06:00:48.901Z,13.20
2024-05-09T06:03:17.732Z,13.20
2024-05-09T06:05:47.092Z,13.30
2024-05-09T06:08:15.891Z,13.30
2024-05-09T06:10:44.519Z,13.50
2024-05-09T06:13:14.323Z,13.80
2024-05-09T06:15:44.004Z,14.00
2024-05-09T06:18:14.352Z,14.10
2024-05-09T06:20:44.239Z,14.00
2024-05-09T06:23:48.370Z,14.00
2024-05-09T06:26:17.709Z,14.00
2024-05-09T06:28:46.206Z,14.20
2024-05-09T06:31:14.856Z,14.30
2024-05-09T06:33:43.558Z,14.60
2024-05-09T06:36:13.543Z,14.70
2024-05-09T06:38:42.532Z,15.00
2024-05-09T06:41:11.231Z,15.00
2024-05-09T06:43:39.634Z,14.90
2024-05-09T06:46:11.173Z,15.00
2024-05-09T06:48:39.946Z,15.40
2024-05-09T06:51:08.493Z,15.50
2024-05-09T06:53:39.981Z,15.60
2024-05-09T06:56:09.346Z,15.60
2024-05-09T06:58:37.739Z,15.80
2024-05-09T07:01:07.109Z,15.90
2024-05-09T07:03:35.702Z,15.80
2024-05-09T07:06:04.450Z,16.30
2024-05-09T07:08:33.414Z,16.40
2024-05-09T07:11:02.061Z,16.60
2024-05-09T07:13:30.578Z,16.40
2024-05-09T07:15:59.020Z,16.80
2024-05-09T07:18:27.544Z,16.80
2024-05-09T07:20:55.990Z,16.90
2024-05-09T07:23:27.632Z,17.10
2024-05-09T07:25:58.118Z,17.40
2024-05-09T07:28:26.506Z,18.00
2024-05-09T07:30:54.796Z,18.50
2024-05-09T07:33:24.411Z,18.70
2024-05-09T07:35:53.404Z,18.80
2024-05-09T07:38:22.286Z,18.60
2024-05-09T07:40:50.891Z,18.30
2024-05-09T07:43:19.560Z,18.30
2024-05-09T07:45:53.024Z,18.40
2024-05-09T07:52:39.357Z,19.30
2024-05-09T07:53:49.965Z,19.60
2024-05-09T07:56:22.818Z,19.90
2024-05-09T07:58:56.624Z,20.00
2024-05-09T08:01:27.028Z,20.10
2024-05-09T08:03:56.578Z,20.20
2024-05-09T08:06:26.095Z,19.80
2024-05-09T08:08:54.881Z,19.40
2024-05-09T08:11:24.318Z,19.70
2024-05-09T08:13:52.883Z,20.00
2024-05-09T08:16:22.091Z,19.60
2024-05-09T08:18:50.865Z,19.80
2024-05-09T08:21:22.594Z,19.90
2024-05-09T08:23:51.659Z,20.20
2024-05-09T08:26:20.244Z,20.80
2024-05-09T08:28:48.708Z,21.10
2024-05-09T08:31:17.113Z,21.00
2024-05-09T08:33:47.519Z,21.30
2024-05-09T08:36:17.537Z,21.40
2024-05-09T08:38:45.978Z,21.40
2024-05-09T08:41:18.037Z,21.70
2024-05-09T08:44:11.405Z,21.70
2024-05-09T08:46:41.009Z,21.60
2024-05-09T08:49:10.388Z,21.20
2024-05-09T08:51:38.674Z,20.50
2024-05-09T08:54:07.185Z,20.50
2024-05-09T08:56:38.985Z,20.50
2024-05-09T08:59:09.349Z,20.60
2024-05-09T09:01:42.013Z,21.00
2024-05-09T09:04:11.864Z,21.30
2024-05-09T09:06:42.007Z,21.40
2024-05-09T09:09:12.196Z,21.80
2024-05-09T09:11:40.655Z,22.30
2024-05-09T09:14:09.371Z,22.40
2024-05-09T09:16:37.929Z,23.00
2024-05-09T09:19:06.463Z,23.00
2024-05-09T09:21:36.033Z,22.80
2024-05-09T09:24:05.356Z,23.50
2024-05-09T09:26:34.534Z,24.00
2024-05-09T09:29:03.007Z,24.20
2024-05-09T09:31:31.661Z,23.80
2024-05-09T09:34:09.549Z,23.80
2024-05-09T09:36:42.093Z,24.30
2024-05-09T09:39:11.115Z,24.70
2024-05-09T09:41:40.461Z,24.50
2024-05-09T09:44:10.638Z,24.60
2024-05-09T09:46:40.170Z,24.60
2024-05-09T09:49:10.054Z,24.50
2024-05-09T09:51:44.026Z,24.20
2024-05-09T09:54:13.884Z,24.30
2024-05-09T09:56:42.975Z,24.60
2024-05-09T09:59:16.238Z,24.60
2024-05-09T10:01:46.566Z,24.60
2024-05-09T10:04:17.255Z,24.30
2024-05-09T10:06:57.898Z,24.40
2024-05-09T10:09:26.920Z,24.30
2024-05-09T10:12:00.138Z,24.50
2024-05-09T10:14:31.241Z,24.60
2024-05-09T10:17:06.312Z,24.80
2024-05-09T10:19:35.680Z,23.70
2024-05-09T10:22:04.724Z,23.40
2024-05-09T10:24:52.657Z,23.60
2024-05-09T10:27:28.458Z,24.00
2024-05-09T10:30:11.594Z,24.30
2024-05-09T10:32:45.442Z,24.20
2024-05-09T10:35:19.537Z,24.20
2024-05-09T10:37:48.765Z,24.30
2024-05-09T10:40:26.032Z,24.30
2024-05-09T10:43:03.326Z,24.00
2024-05-09T10:45:35.969Z,23.90
2024-05-09T10:48:04.918Z,23.70
2024-05-09T10:50:34.552Z,23.30
2024-05-09T10:53:03.584Z,23.50
2024-05-09T10:55:32.109Z,23.80
2024-05-09T10:58:00.725Z,23.80
2024-05-09T11:00:36.023Z,23.60
2024-05-09T11:03:05.693Z,23.40
2024-05-09T11:05:35.239Z,23.30
2024-05-09T11:08:04.160Z,23.20
2024-05-09T11:10:34.406Z,23.50
2024-05-09T11:13:28.489Z,23.30
2024-05-09T11:15:57.239Z,22.90
2024-05-09T11:18:30.868Z,22.90
2024-05-09T11:21:02.384Z,23.00
2024-05-09T11:23:31.590Z,23.30
2024-05-09T11:26:00.002Z,23.60
2024-05-09T11:28:31.371Z,23.60
2024-05-09T11:31:10.489Z,23.90
2024-05-09T11:33:40.209Z,24.20
2024-05-09T11:36:09.749Z,24.20
2024-05-09T11:38:38.611Z,23.70
2024-05-09T11:41:07.290Z,23.30
2024-05-09T11:43:35.854Z,23.30
2024-05-09T11:46:04.869Z,23.50
2024-05-09T11:48:33.506Z,23.60
2024-05-09T11:51:02.040Z,23.70
2024-05-09T11:53:30.503Z,23.70
2024-05-09T11:55:58.823Z,23.90
2024-05-09T11:58:28.846Z,23.70
2024-05-09T12:00:57.527Z,23.80
2024-05-09T12:03:26.415Z,23.80
2024-05-09T12:05:55.134Z,24.10
2024-05-09T12:08:24.460Z,24.10
2024-05-09T12:10:53.515Z,24.00
2024-05-09T12:13:22.292Z,24.00
2024-05-09T12:17:06.733Z,24.20
2024-05-09T12:19:35.672Z,24.00
2024-05-09T12:22:05.560Z,24.20
2024-05-09T12:24:34.219Z,24.40
2024-05-09T12:27:02.579Z,24.50
2024-05-09T12:29:30.965Z,24.30
2024-05-09T12:31:59.395Z,23.90
2024-05-09T12:34:28.348Z,23.50
2024-05-09T12:36:57.011Z,23.40
2024-05-09T12:39:30.947Z,23.10
2024-05-09T12:41:59.584Z,23.40
2024-05-09T12:44:30.465Z,23.60
2024-05-09T12:46:58.901Z,23.70
2024-05-09T12:49:27.607Z,23.40
2024-05-09T12:51:56.152Z,23.60
2024-05-09T12:54:24.547Z,23.40
2024-05-09T12:56:52.932Z,23.50
2024-05-09T12:59:21.648Z,23.80
2024-05-09T13:01:50.210Z,24.10
2024-05-09T13:04:19.675Z,23.90
2024-05-09T13:06:49.393Z,23.90
2024-05-09T13:09:18.099Z,23.70
2024-05-09T13:11:47.078Z,23.80
2024-05-09T13:14:15.456Z,23.90
2024-05-09T13:16:44.029Z,24.10
2024-05-09T13:19:12.684Z,24.30
2024-05-09T13:21:41.153Z,24.40
2024-05-09T13:24:10.026Z,24.50
2024-05-09T13:26:38.483Z,24.40
2024-05-09T13:29:07.184Z,24.20
2024-05-09T13:31:36.209Z,24.10
2024-05-09T13:34:04.857Z,24.00
2024-05-09T13:36:33.975Z,23.80
2024-05-09T13:39:02.580Z,23.80
2024-05-09T13:41:31.089Z,23.80
2024-05-09T13:43:59.903Z,23.70
2024-05-09T13:46:28.734Z,23.90
2024-05-09T13:48:57.977Z,23.80
2024-05-09T13:51:26.562Z,23.80
2024-05-09T13:53:59.551Z,24.00
2024-05-09T13:56:28.114Z,24.20
2024-05-09T13:58:56.489Z,24.00
2024-05-09T14:01:26.013Z,23.90
2024-05-09T14:03:54.896Z,23.90
2024-05-09T14:06:33.402Z,23.90
2024-05-09T14:09:04.919Z,23.80
2024-05-09T14:11:33.522Z,23.70
2024-05-09T14:14:02.748Z,23.50
2024-05-09T14:16:31.882Z,23.60
2024-05-09T14:19:00.923Z,23.70
2024-05-09T14:21:29.485Z,23.80
2024-05-09T14:23:58.607Z,23.70
2024-05-09T14:26:27.263Z,23.70
2024-05-09T14:28:55.931Z,23.70
2024-05-09T14:31:24.560Z,23.90
2024-05-09T14:33:53.265Z,23.90
2024-05-09T14:36:22.073Z,23.80
2024-05-09T14:38:50.516Z,23.80
2024-05-09T14:41:18.966Z,23.70
2024-05-09T14:43:47.890Z,23.70
2024-05-09T14:46:17.000Z,23.50
2024-05-09T14:48:46.294Z,23.40
2024-05-09T14:51:16.883Z,23.40
2024-05-09T14:53:45.336Z,23.20
2024-05-09T14:56:15.351Z,23.30
2024-05-09T14:58:44.230Z,23.30
2024-05-09T15:01:12.807Z,23.20
2024-05-09T15:03:41.317Z,23.30
2024-05-09T15:06:09.711Z,23.40
2024-05-09T15:08:38.281Z,23.30
2024-05-09T15:11:06.873Z,23.30
2024-05-09T15:13:35.476Z,23.30
2024-05-09T15:16:04.961Z,23.40
2024-05-09T15:18:33.628Z,23.40
2024-05-09T15:21:02.427Z,23.40
2024-05-09T15:23:31.053Z,23.30
2024-05-09T15:25:59.636Z,23.30
2024-05-09T15:28:28.125Z,23.30
2024-05-09T15:30:56.913Z,23.40
2024-05-09T15:33:25.803Z,23.30
2024-05-09T15:35:54.670Z,23.30
2024-05-09T15:38:23.084Z,23.20
2024-05-09T15:40:51.702Z,23.10
2024-05-09T15:43:20.816Z,23.10
2024-05-09T15:45:49.209Z,23.10
2024-05-09T15:48:18.376Z,23.00
2024-05-09T15:50:46.962Z,22.90
2024-05-09T15:53:15.525Z,22.90
2024-05-09T15:55:44.175Z,22.90
2024-05-09T15:58:13.376Z,23.00
2024-05-09T16:00:45.047Z,23.10
2024-05-09T16:03:15.307Z,23.00
2024-05-09T16:05:46.349Z,22.90
2024-05-09T16:08:16.714Z,22.80
2024-05-09T16:10:47.364Z,22.70
2024-05-09T16:13:17.810Z,22.70
2024-05-09T16:15:46.875Z,22.80
2024-05-09T16:18:15.849Z,22.70
2024-05-09T16:20:46.346Z,22.60
2024-05-09T16:23:17.595Z,22.50
2024-05-09T16:25:48.546Z,22.40
2024-05-09T16:28:19.386Z,22.40
2024-05-09T16:30:49.575Z,22.30
2024-05-09T16:33:26.203Z,22.10
2024-05-09T16:35:55.352Z,22.00
2024-05-09T16:38:24.141Z,22.10
2024-05-09T16:40:52.883Z,22.10
2024-05-09T16:43:22.739Z,22.10
2024-05-09T16:45:51.635Z,22.10
2024-05-09T16:48:20.295Z,22.10
2024-05-09T16:50:49.537Z,22.00
2024-05-09T16:53:19.845Z,22.00
2024-05-09T16:55:48.431Z,21.90
2024-05-09T16:58:16.987Z,21.90
2024-05-09T17:00:45.533Z,21.80
2024-05-09T17:03:15.714Z,21.90
2024-05-09T17:05:48.701Z,21.80
2024-05-09T17:08:20.400Z,21.60
2024-05-09T17:10:49.658Z,21.50
2024-05-09T17:13:19.320Z,21.40
2024-05-09T17:15:50.219Z,21.40
2024-05-09T17:18:19.249Z,21.40
2024-05-09T17:20:49.336Z,21.40
2024-05-09T17:23:17.653Z,21.40
2024-05-09T17:25:46.920Z,21.50
2024-05-09T17:28:16.086Z,21.40
2024-05-09T17:30:44.568Z,21.40
2024-05-09T17:33:13.736Z,21.30
2024-05-09T17:35:42.488Z,21.30
2024-05-09T17:38:10.987Z,21.30
2024-05-09T17:40:40.114Z,21.30
2024-05-09T17:43:10.554Z,21.30
2024-05-09T17:45:41.263Z,21.30
2024-05-09T17:48:12.243Z,21.20
2024-05-09T17:50:42.507Z,21.10
2024-05-09T17:53:11.410Z,21.10
2024-05-09T17:55:40.705Z,21.00
2024-05-09T17:58:10.492Z,20.90
2024-05-09T18:00:41.935Z,20.80
2024-05-09T18:03:12.644Z,20.70
2024-05-09T18:05:43.986Z,20.60
2024-05-09T18:08:13.771Z,20.50
2024-05-09T18:10:42.967Z,20.50
2024-05-09T18:13:13.233Z,20.40
2024-05-09T18:15:42.142Z,20.10
2024-05-09T18:18:11.826Z,20.10
2024-05-09T18:20:44.566Z,20.10
2024-05-09T18:23:16.918Z,20.10
2024-05-09T18:25:47.052Z,19.80
2024-05-09T18:28:18.389Z,19.40
2024-05-09T18:30:50.304Z,19.10
2024-05-09T18:33:19.210Z,19.20
2024-05-09T18:35:47.680Z,19.40
2024-05-09T18:38:16.468Z,19.80
2024-05-09T18:40:48.209Z,19.90
2024-05-09T18:43:18.106Z,19.70
2024-05-09T18:45:47.758Z,19.60
2024-05-09T18:48:16.695Z,19.50
2024-05-09T18:50:45.403Z,19.40
2024-05-09T18:53:14.644Z,19.40
2024-05-09T18:55:43.269Z,19.20
2024-05-09T18:58:13.032Z,19.10
2024-05-09T19:00:45.204Z,19.10
2024-05-09T19:03:16.131Z,19.30
2024-05-09T19:05:46.196Z,19.10
2024-05-09T19:08:15.826Z,19.20
2024-05-09T19:10:46.374Z,19.30
2024-05-09T19:13:25.484Z,19.30
2024-05-09T19:15:54.490Z,19.20
2024-05-09T19:18:23.026Z,19.30
2024-05-09T19:20:51.809Z,19.40
2024-05-09T19:23:20.542Z,19.30
2024-05-09T19:25:49.204Z,19.10
2024-05-09T19:28:17.861Z,19.10
2024-05-09T19:30:47.020Z,19.10
2024-05-09T19:33:15.831Z,19.10
2024-05-09T19:35:44.542Z,19.00
2024-05-09T19:38:13.225Z,19.00
2024-05-09T19:40:41.846Z,19.00
2024-05-09T19:43:11.391Z,19.10
2024-05-09T19:45:40.255Z,19.10
2024-05-09T19:48:09.074Z,18.90
2024-05-09T19:50:43.060Z,18.80
2024-05-09T19:53:14.175Z,18.80
2024-05-09T19:55:43.561Z,19.00
2024-05-09T19:58:12.972Z,19.00
2024-05-09T20:00:43.678Z,18.90
2024-05-09T20:03:15.313Z,18.70
2024-05-09T20:05:47.772Z,18.50
2024-05-09T20:08:17.175Z,18.40
2024-05-09T20:10:45.619Z,18.20
2024-05-09T20:13:14.360Z,18.40
2024-05-09T20:15:43.357Z,18.40
2024-05-09T20:18:12.539Z,18.40
2024-05-09T20:20:43.093Z,18.60
2024-05-09T20:23:14.442Z,18.60
2024-05-09T20:25:43.054Z,18.60
2024-05-09T20:28:12.368Z,18.50
2024-05-09T20:30:41.128Z,18.50
2024-05-09T20:33:12.197Z,18.50
2024-05-09T20:35:41.802Z,18.50
2024-05-09T20:38:10.305Z,18.30
2024-05-09T20:40:41.765Z,18.20
2024-05-09T20:43:10.840Z,18.20
2024-05-09T20:45:40.587Z,18.10
2024-05-09T20:48:09.949Z,18.00
2024-05-09T20:50:41.437Z,17.90
2024-05-09T20:53:13.916Z,17.80
2024-05-09T20:55:44.621Z,17.70
2024-05-09T20:58:14.151Z,17.50
2024-05-09T21:00:45.375Z,17.50
2024-05-09T21:03:17.326Z,17.40
2024-05-09T21:05:47.326Z,17.50
2024-05-09T21:08:16.549Z,17.60
2024-05-09T21:10:45.258Z,17.70
2024-05-09T21:13:14.652Z,17.60
2024-05-09T21:15:43.123Z,17.50
2024-05-09T21:18:11.772Z,17.30
2024-05-09T21:20:40.296Z,17.10
2024-05-09T21:23:08.842Z,16.80
2024-05-09T21:25:37.246Z,16.70
2024-05-09T21:28:08.588Z,16.90
2024-05-09T21:30:41.900Z,16.90
2024-05-09T21:33:14.110Z,16.90
2024-05-09T21:35:44.849Z,16.80
2024-05-09T21:38:14.806Z,16.60
2024-05-09T21:40:44.458Z,16.50
2024-05-09T21:43:14.591Z,16.40
2024-05-09T21:45:43.439Z,16.30
2024-05-09T21:48:13.810Z,16.00
2024-05-09T21:50:42.743Z,15.90
2024-05-09T21:53:13.288Z,15.90
2024-05-09T21:55:45.281Z,15.90
2024-05-09T21:58:16.686Z,15.80
2024-05-09T22:00:46.689Z,15.70
2024-05-09T22:03:15.544Z,15.50
2024-05-09T22:05:45.285Z,15.50
2024-05-09T22:08:14.163Z,15.50
2024-05-09T22:10:43.045Z,15.40
2024-05-09T22:13:11.680Z,15.40
2024-05-09T22:15:40.782Z,15.40
2024-05-09T22:18:11.056Z,15.30
2024-05-09T22:20:45.511Z,15.20
2024-05-09T22:23:15.994Z,15.00
2024-05-09T22:25:44.716Z,15.00
2024-05-09T22:28:16.700Z,14.90
2024-05-09T22:30:47.446Z,14.80
2024-05-09T22:33:16.796Z,14.80
2024-05-09T22:35:45.538Z,14.80
2024-05-09T22:38:14.222Z,14.80
2024-05-09T22:40:47.915Z,14.70
2024-05-09T22:43:23.808Z,14.70
2024-05-09T22:45:57.127Z,14.80
2024-05-09T22:48:26.658Z,14.70
2024-05-09T22:50:55.611Z,14.70
2024-05-09T22:53:25.314Z,14.60
2024-05-09T22:55:54.423Z,14.70
2024-05-09T22:58:24.058Z,14.60
2024-05-09T23:00:53.052Z,14.60
2024-05-09T23:03:22.837Z,14.60
2024-05-09T23:05:51.419Z,14.70
2024-05-09T23:08:20.040Z,14.80
2024-05-09T23:10:48.267Z,14.80
2024-05-09T23:13:16.978Z,14.80
2024-05-09T23:15:45.336Z,14.70
2024-05-09T23:18:13.901Z,14.70
2024-05-09T23:20:42.272Z,14.60
2024-05-09T23:23:11.866Z,14.60
2024-05-09T23:25:42.108Z,14.40
2024-05-09T23:28:11.785Z,14.30
2024-05-09T23:30:41.408Z,14.10
2024-05-09T23:33:14.873Z,14.00
2024-05-09T23:35:44.601Z,14.00
2024-05-09T23:38:13.647Z,14.00
2024-05-09T23:40:43.046Z,13.90
2024-05-09T23:43:13.047Z,13.80
2024-05-09T23:45:42.666Z,13.80
2024-05-09T23:48:11.868Z,13.80
2024-05-09T23:50:41.013Z,13.80
2024-05-09T23:53:35.428Z,13.80
2024-05-09T23:56:03.944Z,13.60
2024-05-09T23:58:32.306Z,13.60
